sensor_id;sensor_type;location;lat;lon;timestamp;temperature;humidity
11639;DHT22;5875;35.940;126.892;2023-03-14T00:02:14;18.30;1.00
11639;DHT22;5875;35.940;126.892;2023-03-14T00:04:41;19.00;1.00
11639;DHT22;5875;35.940;126.892;2023-03-14T00:07:11;19.50;1.00
11639;DHT22;5875;35.940;126.892;2023-03-14T00:09:38;19.90;1.00
11639;DHT22;5875;35.940;126.892;2023-03-14T00:12:05;20.30;1.00
11639;DHT22;5875;35.940;126.892;2023-03-14T00:14:34;20.70;1.00
11639;DHT22;5875;35.940;126.892;2023-03-14T00:17:01;21.20;1.00
11639;DHT22;5875;35.940;126.892;2023-03-14T00:19:28;21.50;1.00
11639;DHT22;5875;35.940;126.892;2023-03-14T00:21:55;21.40;1.00
11639;DHT22;5875;35.940;126.892;2023-03-14T00:24:22;21.90;1.00
11639;DHT22;5875;35.940;126.892;2023-03-14T00:26:50;22.30;1.00
11639;DHT22;5875;35.940;126.892;2023-03-14T00:29:17;22.30;1.00
11639;DHT22;5875;35.940;126.892;2023-03-14T00:39:05;20.80;1.00
11639;DHT22;5875;35.940;126.892;2023-03-14T00:43:59;16.60;1.00
11639;DHT22;5875;35.940;126.892;2023-03-14T00:46:26;19.10;1.00
11639;DHT22;5875;35.940;126.892;2023-03-14T00:48:53;20.50;1.00
11639;DHT22;5875;35.940;126.892;2023-03-14T00:51:21;19.30;1.00
11639;DHT22;5875;35.940;126.892;2023-03-14T00:53:48;19.80;1.00
11639;DHT22;5875;35.940;126.892;2023-03-14T00:56:15;20.00;1.00
11639;DHT22;5875;35.940;126.892;2023-03-14T00:58:42;18.50;1.00
11639;DHT22;5875;35.940;126.892;2023-03-14T01:01:16;17.60;1.00
11639;DHT22;5875;35.940;126.892;2023-03-14T01:03:44;18.60;1.00
11639;DHT22;5875;35.940;126.892;2023-03-14T01:08:39;18.30;1.00
11639;DHT22;5875;35.940;126.892;2023-03-14T01:11:11;17.70;1.00
11639;DHT22;5875;35.940;126.892;2023-03-14T01:13:39;16.80;1.00
11639;DHT22;5875;35.940;126.892;2023-03-14T01:16:08;18.80;1.00
11639;DHT22;5875;35.940;126.892;2023-03-14T01:21:09;17.50;1.00
11639;DHT22;5875;35.940;126.892;2023-03-14T01:23:36;18.50;1.00
11639;DHT22;5875;35.940;126.892;2023-03-14T01:26:03;20.30;1.00
11639;DHT22;5875;35.940;126.892;2023-03-14T01:28:30;21.20;1.00
11639;DHT22;5875;35.940;126.892;2023-03-14T01:31:03;22.50;1.00
11639;DHT22;5875;35.940;126.892;2023-03-14T01:33:30;23.40;1.00
11639;DHT22;5875;35.940;126.892;2023-03-14T01:35:58;24.50;1.00
11639;DHT22;5875;35.940;126.892;2023-03-14T01:38:25;25.20;1.00
11639;DHT22;5875;35.940;126.892;2023-03-14T01:40:52;25.70;1.00
11639;DHT22;5875;35.940;126.892;2023-03-14T01:43:20;25.10;1.00
11639;DHT22;5875;35.940;126.892;2023-03-14T01:49:03;25.50;1.00
11639;DHT22;5875;35.940;126.892;2023-03-14T01:51:49;25.70;1.00
11639;DHT22;5875;35.940;126.892;2023-03-14T01:57:06;26.40;1.00
11639;DHT22;5875;35.940;126.892;2023-03-14T01:59:35;26.60;1.00
11639;DHT22;5875;35.940;126.892;2023-03-14T02:02:05;25.30;1.00
11639;DHT22;5875;35.940;126.892;2023-03-14T02:04:35;26.00;1.00
11639;DHT22;5875;35.940;126.892;2023-03-14T02:09:41;26.80;1.00
11639;DHT22;5875;35.940;126.892;2023-03-14T02:12:10;26.10;1.00
11639;DHT22;5875;35.940;126.892;2023-03-14T02:14:38;26.50;1.00
11639;DHT22;5875;35.940;126.892;2023-03-14T02:17:08;26.60;1.00
11639;DHT22;5875;35.940;126.892;2023-03-14T02:20:28;26.00;1.00
11639;DHT22;5875;35.940;126.892;2023-03-14T02:22:57;26.00;1.00
11639;DHT22;5875;35.940;126.892;2023-03-14T02:25:51;26.50;1.00
11639;DHT22;5875;35.940;126.892;2023-03-14T02:28:21;26.20;1.00
11639;DHT22;5875;35.940;126.892;2023-03-14T02:30:48;26.30;1.00
11639;DHT22;5875;35.940;126.892;2023-03-14T02:33:18;26.00;1.00
11639;DHT22;5875;35.940;126.892;2023-03-14T02:38:33;26.40;1.00
11639;DHT22;5875;35.940;126.892;2023-03-14T02:41:02;26.20;1.00
11639;DHT22;5875;35.940;126.892;2023-03-14T02:43:30;26.40;1.00
11639;DHT22;5875;35.940;126.892;2023-03-14T02:45:57;26.00;1.00
11639;DHT22;5875;35.940;126.892;2023-03-14T02:48:37;25.80;1.00
11639;DHT22;5875;35.940;126.892;2023-03-14T02:51:06;25.80;1.00
11639;DHT22;5875;35.940;126.892;2023-03-14T02:53:36;25.20;1.00
11639;DHT22;5875;35.940;126.892;2023-03-14T02:56:03;25.40;1.00
11639;DHT22;5875;35.940;126.892;2023-03-14T02:58:31;25.50;1.00
11639;DHT22;5875;35.940;126.892;2023-03-14T03:00:58;25.50;1.00
11639;DHT22;5875;35.940;126.892;2023-03-14T03:03:25;25.60;1.00
11639;DHT22;5875;35.940;126.892;2023-03-14T03:05:56;25.70;1.00
11639;DHT22;5875;35.940;126.892;2023-03-14T03:08:25;25.60;1.00
11639;DHT22;5875;35.940;126.892;2023-03-14T03:10:53;25.40;1.00
11639;DHT22;5875;35.940;126.892;2023-03-14T03:13:21;25.30;1.00
11639;DHT22;5875;35.940;126.892;2023-03-14T03:15:48;24.80;1.00
11639;DHT22;5875;35.940;126.892;2023-03-14T03:18:15;24.90;1.00
11639;DHT22;5875;35.940;126.892;2023-03-14T03:20:43;25.10;1.00
11639;DHT22;5875;35.940;126.892;2023-03-14T03:23:10;24.70;1.00
11639;DHT22;5875;35.940;126.892;2023-03-14T03:25:37;23.70;1.00
11639;DHT22;5875;35.940;126.892;2023-03-14T03:28:04;24.30;1.00
11639;DHT22;5875;35.940;126.892;2023-03-14T03:30:40;24.80;1.00
11639;DHT22;5875;35.940;126.892;2023-03-14T03:33:08;24.60;1.00
11639;DHT22;5875;35.940;126.892;2023-03-14T03:35:41;24.30;1.00
11639;DHT22;5875;35.940;126.892;2023-03-14T03:38:08;24.30;1.00
11639;DHT22;5875;35.940;126.892;2023-03-14T03:40:35;24.50;1.00
11639;DHT22;5875;35.940;126.892;2023-03-14T03:43:02;24.20;1.00
11639;DHT22;5875;35.940;126.892;2023-03-14T03:45:30;23.60;1.00
11639;DHT22;5875;35.940;126.892;2023-03-14T03:47:57;23.80;1.00
11639;DHT22;5875;35.940;126.892;2023-03-14T03:50:25;23.50;1.00
11639;DHT22;5875;35.940;126.892;2023-03-14T03:52:52;23.50;1.00
11639;DHT22;5875;35.940;126.892;2023-03-14T03:55:19;23.30;1.00
11639;DHT22;5875;35.940;126.892;2023-03-14T03:57:46;23.40;1.00
11639;DHT22;5875;35.940;126.892;2023-03-14T04:00:13;23.50;1.00
11639;DHT22;5875;35.940;126.892;2023-03-14T04:02:41;23.50;1.00
11639;DHT22;5875;35.940;126.892;2023-03-14T04:05:08;23.40;1.00
11639;DHT22;5875;35.940;126.892;2023-03-14T04:07:35;23.40;1.00
11639;DHT22;5875;35.940;126.892;2023-03-14T04:10:03;23.30;1.00
11639;DHT22;5875;35.940;126.892;2023-03-14T04:12:31;23.10;1.00
11639;DHT22;5875;35.940;126.892;2023-03-14T04:14:58;22.90;1.00
11639;DHT22;5875;35.940;126.892;2023-03-14T04:17:25;22.80;1.00
11639;DHT22;5875;35.940;126.892;2023-03-14T04:19:52;22.60;1.00
11639;DHT22;5875;35.940;126.892;2023-03-14T04:22:20;22.80;1.00
11639;DHT22;5875;35.940;126.892;2023-03-14T04:24:47;22.40;1.00
11639;DHT22;5875;35.940;126.892;2023-03-14T04:27:15;22.80;1.00
11639;DHT22;5875;35.940;126.892;2023-03-14T04:29:42;22.50;1.00
11639;DHT22;5875;35.940;126.892;2023-03-14T04:39:33;22.40;1.00
11639;DHT22;5875;35.940;126.892;2023-03-14T04:42:00;22.40;1.00
11639;DHT22;5875;35.940;126.892;2023-03-14T04:44:27;22.20;1.00
11639;DHT22;5875;35.940;126.892;2023-03-14T04:46:54;22.20;1.00
11639;DHT22;5875;35.940;126.892;2023-03-14T04:49:22;22.10;1.00
11639;DHT22;5875;35.940;126.892;2023-03-14T04:51:49;22.50;1.00
11639;DHT22;5875;35.940;126.892;2023-03-14T04:54:18;22.50;1.00
11639;DHT22;5875;35.940;126.892;2023-03-14T04:56:45;22.30;1.00
11639;DHT22;5875;35.940;126.892;2023-03-14T04:59:12;21.80;1.00
11639;DHT22;5875;35.940;126.892;2023-03-14T07:24:01;21.80;1.00
11639;DHT22;5875;35.940;126.892;2023-03-14T07:26:28;20.20;1.00
11639;DHT22;5875;35.940;126.892;2023-03-14T07:28:55;19.90;1.00
11639;DHT22;5875;35.940;126.892;2023-03-14T07:31:23;19.80;1.00
11639;DHT22;5875;35.940;126.892;2023-03-14T07:33:50;19.70;1.00
11639;DHT22;5875;35.940;126.892;2023-03-14T07:36:17;19.70;1.00
11639;DHT22;5875;35.940;126.892;2023-03-14T07:38:44;19.70;1.00
11639;DHT22;5875;35.940;126.892;2023-03-14T07:41:12;19.70;1.00
11639;DHT22;5875;35.940;126.892;2023-03-14T07:43:39;19.80;1.00
11639;DHT22;5875;35.940;126.892;2023-03-14T07:46:07;19.60;1.00
11639;DHT22;5875;35.940;126.892;2023-03-14T07:48:34;19.60;1.00
11639;DHT22;5875;35.940;126.892;2023-03-14T07:51:01;19.70;1.00
11639;DHT22;5875;35.940;126.892;2023-03-14T07:53:28;19.80;1.00
11639;DHT22;5875;35.940;126.892;2023-03-14T07:55:56;19.60;1.00
11639;DHT22;5875;35.940;126.892;2023-03-14T07:58:23;19.60;1.00
11639;DHT22;5875;35.940;126.892;2023-03-14T08:00:51;19.40;1.00
11639;DHT22;5875;35.940;126.892;2023-03-14T09:46:46;16.30;8.90
11639;DHT22;5875;35.940;126.892;2023-03-14T09:49:31;16.00;10.10
11639;DHT22;5875;35.940;126.892;2023-03-14T09:52:02;15.80;11.00
11639;DHT22;5875;35.940;126.892;2023-03-14T09:54:38;15.60;12.60
11639;DHT22;5875;35.940;126.892;2023-03-14T09:57:10;15.50;13.40
11639;DHT22;5875;35.940;126.892;2023-03-14T09:59:38;15.50;14.10
11639;DHT22;5875;35.940;126.892;2023-03-14T10:04:49;15.30;16.10
11639;DHT22;5875;35.940;126.892;2023-03-14T10:07:19;15.20;16.70
11639;DHT22;5875;35.940;126.892;2023-03-14T10:09:50;15.20;16.90
11639;DHT22;5875;35.940;126.892;2023-03-14T10:12:19;15.10;17.80
11639;DHT22;5875;35.940;126.892;2023-03-14T10:14:50;15.10;18.00
11639;DHT22;5875;35.940;126.892;2023-03-14T10:17:19;15.00;18.60
11639;DHT22;5875;35.940;126.892;2023-03-14T10:19:58;14.90;19.70
11639;DHT22;5875;35.940;126.892;2023-03-14T10:22:35;14.80;20.00
11639;DHT22;5875;35.940;126.892;2023-03-14T10:25:05;14.80;20.70
11639;DHT22;5875;35.940;126.892;2023-03-14T10:27:35;14.80;20.50
11639;DHT22;5875;35.940;126.892;2023-03-14T10:30:07;14.80;20.40
11639;DHT22;5875;35.940;126.892;2023-03-14T10:32:46;14.70;20.80
11639;DHT22;5875;35.940;126.892;2023-03-14T10:37:58;14.60;21.70
11639;DHT22;5875;35.940;126.892;2023-03-14T10:42:57;14.60;21.70
11639;DHT22;5875;35.940;126.892;2023-03-14T10:45:36;14.50;21.80
11639;DHT22;5875;35.940;126.892;2023-03-14T10:48:23;14.50;21.90
11639;DHT22;5875;35.940;126.892;2023-03-14T10:51:06;14.50;21.90
11639;DHT22;5875;35.940;126.892;2023-03-14T10:56:33;14.40;22.10
11639;DHT22;5875;35.940;126.892;2023-03-14T10:59:00;14.30;22.20
11639;DHT22;5875;35.940;126.892;2023-03-14T11:02:03;14.20;22.50
11639;DHT22;5875;35.940;126.892;2023-03-14T11:28:47;13.50;24.40
11639;DHT22;5875;35.940;126.892;2023-03-14T11:31:29;13.00;26.40
11639;DHT22;5875;35.940;126.892;2023-03-14T11:36:53;12.80;30.00
11639;DHT22;5875;35.940;126.892;2023-03-14T11:39:23;12.30;39.80
11639;DHT22;5875;35.940;126.892;2023-03-14T11:41:54;11.50;58.70
11639;DHT22;5875;35.940;126.892;2023-03-14T11:44:34;11.20;80.40
11639;DHT22;5875;35.940;126.892;2023-03-14T11:47:05;11.10;90.70
11639;DHT22;5875;35.940;126.892;2023-03-14T11:52:40;11.60;84.00
11639;DHT22;5875;35.940;126.892;2023-03-14T11:55:24;11.70;75.40
11639;DHT22;5875;35.940;126.892;2023-03-14T12:00:45;11.90;66.70
11639;DHT22;5875;35.940;126.892;2023-03-14T12:13:38;12.20;56.80
11639;DHT22;5875;35.940;126.892;2023-03-14T12:16:19;12.20;58.10
11639;DHT22;5875;35.940;126.892;2023-03-14T12:18:47;12.20;59.20
11639;DHT22;5875;35.940;126.892;2023-03-14T12:21:14;12.20;58.80
11639;DHT22;5875;35.940;126.892;2023-03-14T12:23:59;12.20;59.30
11639;DHT22;5875;35.940;126.892;2023-03-14T12:26:50;12.20;58.50
11639;DHT22;5875;35.940;126.892;2023-03-14T12:29:18;12.10;59.70
11639;DHT22;5875;35.940;126.892;2023-03-14T12:32:09;12.00;60.40
11639;DHT22;5875;35.940;126.892;2023-03-14T12:34:47;12.00;60.20
11639;DHT22;5875;35.940;126.892;2023-03-14T12:37:41;12.00;56.60
11639;DHT22;5875;35.940;126.892;2023-03-14T12:40:35;11.90;56.50
11639;DHT22;5875;35.940;126.892;2023-03-14T12:43:29;11.80;56.00
11639;DHT22;5875;35.940;126.892;2023-03-14T12:51:40;11.60;57.10
11639;DHT22;5875;35.940;126.892;2023-03-14T12:54:43;11.60;57.30
11639;DHT22;5875;35.940;126.892;2023-03-14T12:57:26;11.50;59.50
11639;DHT22;5875;35.940;126.892;2023-03-14T13:00:00;11.60;55.00
11639;DHT22;5875;35.940;126.892;2023-03-14T13:02:42;11.60;54.20
11639;DHT22;5875;35.940;126.892;2023-03-14T13:05:12;11.60;54.20
11639;DHT22;5875;35.940;126.892;2023-03-14T13:10:29;11.60;50.60
11639;DHT22;5875;35.940;126.892;2023-03-14T13:13:20;11.60;50.20
11639;DHT22;5875;35.940;126.892;2023-03-14T13:15:49;11.30;48.80
11639;DHT22;5875;35.940;126.892;2023-03-14T13:18:29;11.30;49.70
11639;DHT22;5875;35.940;126.892;2023-03-14T13:21:20;11.20;48.20
11639;DHT22;5875;35.940;126.892;2023-03-14T13:26:25;10.80;44.80
11639;DHT22;5875;35.940;126.892;2023-03-14T13:28:59;10.50;46.20
11639;DHT22;5875;35.940;126.892;2023-03-14T13:31:27;10.50;45.20
11639;DHT22;5875;35.940;126.892;2023-03-14T13:33:59;10.10;43.30
11639;DHT22;5875;35.940;126.892;2023-03-14T13:36:27;9.90;44.20
11639;DHT22;5875;35.940;126.892;2023-03-14T13:39:01;9.70;43.90
11639;DHT22;5875;35.940;126.892;2023-03-14T13:41:29;9.40;44.20
11639;DHT22;5875;35.940;126.892;2023-03-14T13:44:18;9.20;44.60
11639;DHT22;5875;35.940;126.892;2023-03-14T13:46:48;9.10;46.40
11639;DHT22;5875;35.940;126.892;2023-03-14T13:49:25;9.10;46.50
11639;DHT22;5875;35.940;126.892;2023-03-14T13:51:55;9.10;46.00
11639;DHT22;5875;35.940;126.892;2023-03-14T13:54:23;9.20;47.50
11639;DHT22;5875;35.940;126.892;2023-03-14T13:57:02;9.20;46.80
11639;DHT22;5875;35.940;126.892;2023-03-14T13:59:34;9.20;46.00
11639;DHT22;5875;35.940;126.892;2023-03-14T14:02:14;9.10;46.70
11639;DHT22;5875;35.940;126.892;2023-03-14T14:04:41;9.00;48.80
11639;DHT22;5875;35.940;126.892;2023-03-14T14:07:12;8.80;53.10
11639;DHT22;5875;35.940;126.892;2023-03-14T14:09:47;8.60;60.80
11639;DHT22;5875;35.940;126.892;2023-03-14T14:12:19;8.50;72.10
11639;DHT22;5875;35.940;126.892;2023-03-14T14:18:12;8.30;93.50
11639;DHT22;5875;35.940;126.892;2023-03-14T14:20:43;8.30;97.80
11639;DHT22;5875;35.940;126.892;2023-03-14T14:25:39;8.30;99.90
11639;DHT22;5875;35.940;126.892;2023-03-14T14:31:15;8.40;99.90
11639;DHT22;5875;35.940;126.892;2023-03-14T14:34:03;8.50;99.90
11639;DHT22;5875;35.940;126.892;2023-03-14T14:36:48;8.50;99.90
11639;DHT22;5875;35.940;126.892;2023-03-14T14:39:24;8.30;99.90
11639;DHT22;5875;35.940;126.892;2023-03-14T14:41:53;8.20;99.90
11639;DHT22;5875;35.940;126.892;2023-03-14T14:44:30;8.30;99.90
11639;DHT22;5875;35.940;126.892;2023-03-14T14:46:59;8.50;99.90
11639;DHT22;5875;35.940;126.892;2023-03-14T14:49:33;8.70;99.90
11639;DHT22;5875;35.940;126.892;2023-03-14T14:52:18;8.90;99.90
11639;DHT22;5875;35.940;126.892;2023-03-14T14:54:53;8.90;95.30
11639;DHT22;5875;35.940;126.892;2023-03-14T14:57:26;8.60;98.60
11639;DHT22;5875;35.940;126.892;2023-03-14T15:00:05;8.30;99.90
11639;DHT22;5875;35.940;126.892;2023-03-14T15:02:40;8.20;99.90
11639;DHT22;5875;35.940;126.892;2023-03-14T15:05:19;8.30;99.90
11639;DHT22;5875;35.940;126.892;2023-03-14T15:07:47;8.20;99.90
11639;DHT22;5875;35.940;126.892;2023-03-14T15:10:20;8.30;99.90
11639;DHT22;5875;35.940;126.892;2023-03-14T15:12:48;8.40;99.90
11639;DHT22;5875;35.940;126.892;2023-03-14T15:15:19;8.40;99.90
11639;DHT22;5875;35.940;126.892;2023-03-14T15:17:46;8.40;99.90
11639;DHT22;5875;35.940;126.892;2023-03-14T15:20:15;8.20;99.90
11639;DHT22;5875;35.940;126.892;2023-03-14T15:22:44;8.00;99.90
11639;DHT22;5875;35.940;126.892;2023-03-14T15:25:12;7.80;99.90
11639;DHT22;5875;35.940;126.892;2023-03-14T15:27:39;7.70;99.90
11639;DHT22;5875;35.940;126.892;2023-03-14T15:30:16;7.60;99.90
11639;DHT22;5875;35.940;126.892;2023-03-14T15:32:43;7.50;99.90
11639;DHT22;5875;35.940;126.892;2023-03-14T15:35:11;7.50;99.90
11639;DHT22;5875;35.940;126.892;2023-03-14T15:37:40;7.40;99.90
11639;DHT22;5875;35.940;126.892;2023-03-14T15:40:12;7.40;99.90
11639;DHT22;5875;35.940;126.892;2023-03-14T15:42:40;7.50;99.90
11639;DHT22;5875;35.940;126.892;2023-03-14T15:45:08;7.50;99.90
11639;DHT22;5875;35.940;126.892;2023-03-14T15:47:35;7.50;99.90
11639;DHT22;5875;35.940;126.892;2023-03-14T15:50:03;7.60;99.90
11639;DHT22;5875;35.940;126.892;2023-03-14T15:52:30;7.60;99.90
11639;DHT22;5875;35.940;126.892;2023-03-14T15:54:57;7.70;99.90
11639;DHT22;5875;35.940;126.892;2023-03-14T15:57:24;7.80;99.90
11639;DHT22;5875;35.940;126.892;2023-03-14T15:59:52;8.00;99.90
11639;DHT22;5875;35.940;126.892;2023-03-14T16:02:19;8.20;99.90
11639;DHT22;5875;35.940;126.892;2023-03-14T16:04:46;8.20;99.90
11639;DHT22;5875;35.940;126.892;2023-03-14T16:07:13;8.30;99.90
11639;DHT22;5875;35.940;126.892;2023-03-14T16:09:40;8.30;99.90
11639;DHT22;5875;35.940;126.892;2023-03-14T16:12:08;8.20;99.90
11639;DHT22;5875;35.940;126.892;2023-03-14T16:14:35;8.10;99.90
11639;DHT22;5875;35.940;126.892;2023-03-14T16:17:03;8.00;99.90
11639;DHT22;5875;35.940;126.892;2023-03-14T16:19:37;8.10;99.90
11639;DHT22;5875;35.940;126.892;2023-03-14T16:22:04;8.20;99.90
11639;DHT22;5875;35.940;126.892;2023-03-14T16:24:31;8.20;99.90
11639;DHT22;5875;35.940;126.892;2023-03-14T16:26:58;8.40;99.90
11639;DHT22;5875;35.940;126.892;2023-03-14T16:29:25;8.50;99.90
11639;DHT22;5875;35.940;126.892;2023-03-14T16:31:53;8.60;99.90
11639;DHT22;5875;35.940;126.892;2023-03-14T16:34:21;8.80;99.90
11639;DHT22;5875;35.940;126.892;2023-03-14T16:36:48;8.90;99.90
11639;DHT22;5875;35.940;126.892;2023-03-14T16:39:18;8.90;99.90
11639;DHT22;5875;35.940;126.892;2023-03-14T16:41:46;8.90;99.90
11639;DHT22;5875;35.940;126.892;2023-03-14T16:44:13;8.90;99.90
11639;DHT22;5875;35.940;126.892;2023-03-14T16:46:40;8.90;99.90
11639;DHT22;5875;35.940;126.892;2023-03-14T16:49:07;8.90;99.90
11639;DHT22;5875;35.940;126.892;2023-03-14T16:51:34;8.90;99.90
11639;DHT22;5875;35.940;126.892;2023-03-14T16:54:02;8.80;99.70
11639;DHT22;5875;35.940;126.892;2023-03-14T16:56:29;8.90;98.70
11639;DHT22;5875;35.940;126.892;2023-03-14T16:58:56;8.90;98.40
11639;DHT22;5875;35.940;126.892;2023-03-14T17:01:23;8.90;98.80
11639;DHT22;5875;35.940;126.892;2023-03-14T17:03:51;8.90;97.90
11639;DHT22;5875;35.940;126.892;2023-03-14T17:06:26;8.90;97.10
11639;DHT22;5875;35.940;126.892;2023-03-14T17:08:55;8.90;96.70
11639;DHT22;5875;35.940;126.892;2023-03-14T17:11:23;8.80;97.10
11639;DHT22;5875;35.940;126.892;2023-03-14T17:13:50;8.80;97.70
11639;DHT22;5875;35.940;126.892;2023-03-14T17:16:17;8.80;96.80
11639;DHT22;5875;35.940;126.892;2023-03-14T17:18:45;8.80;96.00
11639;DHT22;5875;35.940;126.892;2023-03-14T17:21:12;8.70;94.50
11639;DHT22;5875;35.940;126.892;2023-03-14T17:23:39;8.70;94.00
11639;DHT22;5875;35.940;126.892;2023-03-14T17:26:07;8.70;93.70
11639;DHT22;5875;35.940;126.892;2023-03-14T17:28:34;8.60;93.80
11639;DHT22;5875;35.940;126.892;2023-03-14T17:31:27;8.60;94.60
11639;DHT22;5875;35.940;126.892;2023-03-14T17:33:55;8.60;95.40
11639;DHT22;5875;35.940;126.892;2023-03-14T17:36:22;8.60;95.30
11639;DHT22;5875;35.940;126.892;2023-03-14T17:38:51;8.50;95.90
11639;DHT22;5875;35.940;126.892;2023-03-14T17:41:19;8.50;96.20
11639;DHT22;5875;35.940;126.892;2023-03-14T17:43:47;8.60;95.30
11639;DHT22;5875;35.940;126.892;2023-03-14T17:46:14;8.60;94.60
11639;DHT22;5875;35.940;126.892;2023-03-14T17:48:45;8.50;94.20
11639;DHT22;5875;35.940;126.892;2023-03-14T17:51:14;8.50;93.70
11639;DHT22;5875;35.940;126.892;2023-03-14T17:53:41;8.50;94.70
11639;DHT22;5875;35.940;126.892;2023-03-14T17:56:09;8.40;95.70
11639;DHT22;5875;35.940;126.892;2023-03-14T17:58:37;8.40;96.40
11639;DHT22;5875;35.940;126.892;2023-03-14T18:01:15;8.40;96.20
11639;DHT22;5875;35.940;126.892;2023-03-14T18:03:43;8.30;96.60
11639;DHT22;5875;35.940;126.892;2023-03-14T18:06:12;8.30;97.50
11639;DHT22;5875;35.940;126.892;2023-03-14T18:08:40;8.30;97.50
11639;DHT22;5875;35.940;126.892;2023-03-14T18:11:10;8.20;98.20
11639;DHT22;5875;35.940;126.892;2023-03-14T18:13:37;8.30;98.80
11639;DHT22;5875;35.940;126.892;2023-03-14T18:16:06;8.30;99.60
11639;DHT22;5875;35.940;126.892;2023-03-14T18:18:34;8.30;99.90
11639;DHT22;5875;35.940;126.892;2023-03-14T18:21:01;8.30;99.90
11639;DHT22;5875;35.940;126.892;2023-03-14T18:23:28;8.30;98.50
11639;DHT22;5875;35.940;126.892;2023-03-14T18:25:58;8.30;97.70
11639;DHT22;5875;35.940;126.892;2023-03-14T18:28:26;8.30;97.70
11639;DHT22;5875;35.940;126.892;2023-03-14T18:31:06;8.40;99.20
11639;DHT22;5875;35.940;126.892;2023-03-14T18:33:33;8.40;99.80
11639;DHT22;5875;35.940;126.892;2023-03-14T18:36:03;8.40;98.80
11639;DHT22;5875;35.940;126.892;2023-03-14T18:38:31;8.40;97.90
11639;DHT22;5875;35.940;126.892;2023-03-14T18:41:05;8.30;94.00
11639;DHT22;5875;35.940;126.892;2023-03-14T18:43:33;8.10;91.50
11639;DHT22;5875;35.940;126.892;2023-03-14T18:46:01;8.00;90.20
11639;DHT22;5875;35.940;126.892;2023-03-14T18:48:31;8.00;90.60
11639;DHT22;5875;35.940;126.892;2023-03-14T18:50:59;8.00;91.70
11639;DHT22;5875;35.940;126.892;2023-03-14T18:53:26;8.10;92.20
11639;DHT22;5875;35.940;126.892;2023-03-14T18:55:58;7.90;93.20
11639;DHT22;5875;35.940;126.892;2023-03-14T18:58:25;8.00;94.40
11639;DHT22;5875;35.940;126.892;2023-03-14T19:01:11;8.00;95.30
11639;DHT22;5875;35.940;126.892;2023-03-14T19:03:39;8.00;96.40
11639;DHT22;5875;35.940;126.892;2023-03-14T19:06:08;8.00;94.90
11639;DHT22;5875;35.940;126.892;2023-03-14T19:08:36;7.90;94.10
11639;DHT22;5875;35.940;126.892;2023-03-14T19:11:05;7.90;95.20
11639;DHT22;5875;35.940;126.892;2023-03-14T19:13:34;7.80;94.30
11639;DHT22;5875;35.940;126.892;2023-03-14T19:16:02;7.50;95.60
11639;DHT22;5875;35.940;126.892;2023-03-14T19:18:29;7.40;99.60
11639;DHT22;5875;35.940;126.892;2023-03-14T19:21:02;7.40;99.90
11639;DHT22;5875;35.940;126.892;2023-03-14T19:23:31;7.40;99.90
11639;DHT22;5875;35.940;126.892;2023-03-14T19:25:59;7.60;99.90
11639;DHT22;5875;35.940;126.892;2023-03-14T19:28:28;7.50;99.90
11639;DHT22;5875;35.940;126.892;2023-03-14T19:30:57;7.60;99.90
11639;DHT22;5875;35.940;126.892;2023-03-14T19:33:25;7.60;99.90
11639;DHT22;5875;35.940;126.892;2023-03-14T19:35:52;7.70;99.90
11639;DHT22;5875;35.940;126.892;2023-03-14T19:38:19;7.80;99.90
11639;DHT22;5875;35.940;126.892;2023-03-14T19:40:47;7.60;99.90
11639;DHT22;5875;35.940;126.892;2023-03-14T19:43:16;7.70;99.90
11639;DHT22;5875;35.940;126.892;2023-03-14T19:45:43;7.20;99.90
11639;DHT22;5875;35.940;126.892;2023-03-14T19:48:10;6.60;99.90
11639;DHT22;5875;35.940;126.892;2023-03-14T19:50:38;6.30;99.90
11639;DHT22;5875;35.940;126.892;2023-03-14T19:53:06;6.20;99.90
11639;DHT22;5875;35.940;126.892;2023-03-14T19:55:36;6.20;99.90
11639;DHT22;5875;35.940;126.892;2023-03-14T19:58:03;6.30;99.90
11639;DHT22;5875;35.940;126.892;2023-03-14T20:00:31;6.50;99.90
11639;DHT22;5875;35.940;126.892;2023-03-14T20:02:58;6.50;99.90
11639;DHT22;5875;35.940;126.892;2023-03-14T20:05:25;6.70;99.90
11639;DHT22;5875;35.940;126.892;2023-03-14T20:07:52;6.70;99.90
11639;DHT22;5875;35.940;126.892;2023-03-14T20:10:20;6.70;99.90
11639;DHT22;5875;35.940;126.892;2023-03-14T20:12:51;6.70;99.90
11639;DHT22;5875;35.940;126.892;2023-03-14T20:15:18;6.90;99.90
11639;DHT22;5875;35.940;126.892;2023-03-14T20:17:48;6.80;99.90
11639;DHT22;5875;35.940;126.892;2023-03-14T20:20:17;6.90;99.90
11639;DHT22;5875;35.940;126.892;2023-03-14T20:22:45;7.00;99.90
11639;DHT22;5875;35.940;126.892;2023-03-14T20:25:17;7.00;99.90
11639;DHT22;5875;35.940;126.892;2023-03-14T20:27:45;7.00;99.90
11639;DHT22;5875;35.940;126.892;2023-03-14T20:30:15;7.10;99.90
11639;DHT22;5875;35.940;126.892;2023-03-14T20:32:44;7.10;99.90
11639;DHT22;5875;35.940;126.892;2023-03-14T20:35:12;7.20;99.90
11639;DHT22;5875;35.940;126.892;2023-03-14T20:37:39;7.20;99.90
11639;DHT22;5875;35.940;126.892;2023-03-14T20:40:07;7.20;99.90
11639;DHT22;5875;35.940;126.892;2023-03-14T20:42:36;7.20;99.90
11639;DHT22;5875;35.940;126.892;2023-03-14T20:45:05;7.20;99.90
11639;DHT22;5875;35.940;126.892;2023-03-14T20:47:34;7.20;99.90
11639;DHT22;5875;35.940;126.892;2023-03-14T20:50:01;7.20;99.90
11639;DHT22;5875;35.940;126.892;2023-03-14T20:52:30;7.00;99.90
11639;DHT22;5875;35.940;126.892;2023-03-14T20:54:57;6.90;99.90
11639;DHT22;5875;35.940;126.892;2023-03-14T20:57:24;6.90;99.90
11639;DHT22;5875;35.940;126.892;2023-03-14T20:59:51;6.80;99.90
11639;DHT22;5875;35.940;126.892;2023-03-14T21:02:18;6.70;99.90
11639;DHT22;5875;35.940;126.892;2023-03-14T21:04:46;6.80;99.90
11639;DHT22;5875;35.940;126.892;2023-03-14T21:07:13;6.80;99.90
11639;DHT22;5875;35.940;126.892;2023-03-14T21:09:40;6.90;99.90
11639;DHT22;5875;35.940;126.892;2023-03-14T21:12:07;6.90;99.90
11639;DHT22;5875;35.940;126.892;2023-03-14T21:14:34;6.70;99.90
11639;DHT22;5875;35.940;126.892;2023-03-14T21:17:02;6.60;99.90
11639;DHT22;5875;35.940;126.892;2023-03-14T21:19:29;6.40;99.90
11639;DHT22;5875;35.940;126.892;2023-03-14T21:22:00;6.30;99.90
11639;DHT22;5875;35.940;126.892;2023-03-14T21:24:29;6.30;99.90
11639;DHT22;5875;35.940;126.892;2023-03-14T21:26:57;6.30;99.90
11639;DHT22;5875;35.940;126.892;2023-03-14T21:29:25;6.20;99.90
11639;DHT22;5875;35.940;126.892;2023-03-14T21:31:52;6.20;99.90
11639;DHT22;5875;35.940;126.892;2023-03-14T21:34:19;6.30;99.90
11639;DHT22;5875;35.940;126.892;2023-03-14T21:36:52;6.30;99.90
11639;DHT22;5875;35.940;126.892;2023-03-14T21:39:20;6.30;99.90
11639;DHT22;5875;35.940;126.892;2023-03-14T21:41:47;6.30;99.90